Time;durP1;ratioP1;P1;durP2;ratioP2;P2;SDS_P1;SDS_P2;PMS_P1;PMS_P2;Temp;Humidity;BMP_temperature;BMP_pressure;BME280_temperature;BME280_humidity;BME280_pressure;Samples;Min_cycle;Max_cycle;Signal;HPM_P1;HPM_P2
2021/06/18 03:00:22;;;;;;;4.00;2.40;;;24.00;61.70;;;;;;6229283;22;883721;-53
2021/06/18 03:02:56;;;;;;;5.15;3.13;;;24.00;61.70;;;;;;6236947;22;20111;-50
2021/06/18 03:05:22;;;;;;;5.68;2.45;;;24.00;61.80;;;;;;6264019;22;20007;-52
2021/06/18 03:08:04;;;;;;;4.30;2.70;;;24.00;61.60;;;;;;6263940;22;20054;-52
2021/06/18 03:10:37;;;;;;;5.03;3.08;;;24.00;61.70;;;;;;6238498;22;19999;-52
2021/06/18 03:13:06;;;;;;;6.13;2.90;;;24.00;61.30;;;;;;6212812;22;20007;-50
2021/06/18 03:15:34;;;;;;;4.25;2.42;;;24.00;61.40;;;;;;6211611;22;20000;-58
2021/06/18 03:17:59;;;;;;;5.78;2.90;;;24.00;61.30;;;;;;6212102;22;20015;-52
2021/06/18 03:20:25;;;;;;;7.32;3.00;;;24.00;61.30;;;;;;6263957;22;20008;-52
2021/06/18 03:22:54;;;;;;;7.10;3.15;;;24.00;61.20;;;;;;6237322;22;20038;-52
2021/06/18 03:25:21;;;;;;;4.88;2.97;;;24.00;61.10;;;;;;6212307;22;20027;-50
2021/06/18 03:27:46;;;;;;;4.28;2.63;;;24.00;61.20;;;;;;6237029;22;20708;-50
2021/06/18 03:30:12;;;;;;;4.30;2.92;;;24.00;61.00;;;;;;6211866;22;20082;-50
2021/06/18 03:32:38;;;;;;;5.10;2.63;;;24.00;61.00;;;;;;6237219;22;20172;-50
2021/06/18 03:35:05;;;;;;;5.65;2.83;;;24.00;60.90;;;;;;6237143;22;19999;-50
2021/06/18 03:37:30;;;;;;;4.38;2.78;;;24.00;60.90;;;;;;6236388;22;19999;-50
2021/06/18 03:39:56;;;;;;;4.38;2.42;;;24.00;60.90;;;;;;6211877;22;20031;-50
2021/06/18 03:42:22;;;;;;;4.20;2.30;;;24.00;60.80;;;;;;6211812;22;20466;-50
2021/06/18 03:44:48;;;;;;;4.45;2.45;;;24.00;60.90;;;;;;6212024;22;20000;-50
2021/06/18 03:47:13;;;;;;;4.40;2.67;;;23.90;60.70;;;;;;6211960;22;20011;-50
2021/06/18 03:49:39;;;;;;;4.85;2.67;;;24.00;61.00;;;;;;6211288;22;20004;-50
2021/06/18 03:52:05;;;;;;;4.60;3.00;;;24.00;61.90;;;;;;6211505;22;20070;-50
2021/06/18 03:54:32;;;;;;;6.30;3.03;;;24.00;61.80;;;;;;6237198;22;19996;-51
2021/06/18 03:56:59;;;;;;;5.68;2.63;;;24.00;61.20;;;;;;6236902;22;20111;-51
2021/06/18 03:59:24;;;;;;;4.82;2.75;;;24.00;61.30;;;;;;6213892;22;20007;-50
2021/06/18 04:01:53;;;;;;;5.78;3.03;;;24.00;61.10;;;;;;6233326;23;20039;-50
2021/06/18 04:04:23;;;;;;;4.90;2.72;;;24.00;61.50;;;;;;6208588;23;20011;-50
2021/06/18 04:06:49;;;;;;;6.55;3.17;;;24.00;61.90;;;;;;6233079;23;20000;-50
2021/06/18 04:09:16;;;;;;;5.68;2.70;;;24.10;61.90;;;;;;6233446;23;20012;-49
2021/06/18 04:11:41;;;;;;;7.30;2.78;;;24.00;61.90;;;;;;6233252;23;20008;-50
2021/06/18 04:14:07;;;;;;;8.55;3.65;;;24.10;61.90;;;;;;6208223;23;19996;-50
2021/06/18 04:18:24;;;;;;;5.82;3.20;;;24.00;62.10;;;;;;5093548;27;20396;-51
2021/06/18 04:20:50;;;;;;;10.95;3.30;;;24.10;63.00;;;;;;5077891;28;20020;-56
2021/06/18 04:23:16;;;;;;;8.82;3.78;;;24.10;62.60;;;;;;5081938;28;20032;-59
2021/06/18 04:25:42;;;;;;;7.38;3.22;;;24.10;62.50;;;;;;5083184;28;20023;-64
2021/06/18 04:28:07;;;;;;;7.70;3.17;;;24.00;62.70;;;;;;5079638;28;20459;-56
2021/06/18 04:30:33;;;;;;;10.07;3.50;;;24.10;62.60;;;;;;5084071;28;20074;-63
2021/06/18 04:32:59;;;;;;;9.18;3.30;;;24.00;62.80;;;;;;5080886;28;20029;-59
2021/06/18 04:35:24;;;;;;;7.93;3.40;;;24.00;62.60;;;;;;5081024;28;20486;-61
2021/06/18 04:37:50;;;;;;;16.85;3.80;;;24.00;62.30;;;;;;5088190;28;20119;-63
2021/06/18 04:40:16;;;;;;;12.65;3.70;;;24.00;62.30;;;;;;5087174;28;20020;-62
2021/06/18 04:42:41;;;;;;;7.07;3.17;;;24.00;62.70;;;;;;5086411;28;20037;-63
2021/06/18 04:45:08;;;;;;;9.95;3.95;;;24.00;62.30;;;;;;5077927;28;20436;-63
2021/06/18 04:47:34;;;;;;;9.40;3.75;;;24.10;62.40;;;;;;5088240;28;20486;-62
2021/06/18 04:49:59;;;;;;;10.63;3.55;;;24.10;61.90;;;;;;5088351;28;20020;-62
2021/06/18 04:52:25;;;;;;;8.25;4.50;;;24.10;62.50;;;;;;5087155;28;20427;-55
2021/06/18 04:54:54;;;;;;;6.90;3.72;;;24.00;61.80;;;;;;5085676;28;20035;-52
2021/06/18 04:57:20;;;;;;;7.70;3.70;;;24.00;62.40;;;;;;5088419;28;20039;-60
2021/06/18 04:59:45;;;;;;;9.82;3.95;;;24.00;62.30;;;;;;5088835;28;20371;-61
2021/06/18 05:02:11;;;;;;;9.35;4.88;;;24.00;62.20;;;;;;5088862;28;20032;-62
2021/06/18 05:04:36;;;;;;;7.78;3.78;;;24.00;62.70;;;;;;5088881;28;20024;-61
2021/06/18 05:07:02;;;;;;;10.98;3.55;;;24.00;63.00;;;;;;5088623;28;20493;-61
2021/06/18 05:09:28;;;;;;;6.75;3.70;;;24.00;63.50;;;;;;5087827;28;20028;-51
2021/06/18 05:11:53;;;;;;;8.13;3.08;;;24.00;63.70;;;;;;5078080;28;20433;-50
2021/06/18 05:14:19;;;;;;;6.13;3.35;;;24.00;63.80;;;;;;5079267;28;20119;-51
2021/06/18 05:16:44;;;;;;;5.20;2.97;;;24.00;63.80;;;;;;5078845;28;20052;-51
2021/06/18 05:19:10;;;;;;;6.97;3.47;;;24.00;63.70;;;;;;5079046;28;20078;-57
2021/06/18 05:21:36;;;;;;;6.90;3.22;;;24.00;63.70;;;;;;5079189;28;20032;-51
2021/06/18 05:25:59;;;;;;;6.55;3.03;;;24.00;63.30;;;;;;5100744;27;20409;-52
2021/06/18 05:28:25;;;;;;;5.93;3.30;;;24.00;63.60;;;;;;5100652;28;20024;-51
2021/06/18 05:30:50;;;;;;;5.65;3.20;;;24.00;63.50;;;;;;5100571;28;20115;-52
2021/06/18 05:33:16;;;;;;;7.28;3.53;;;24.00;63.60;;;;;;5100579;28;20019;-53
2021/06/18 05:35:44;;;;;;;5.40;2.95;;;24.00;63.60;;;;;;5100568;28;20072;-51
2021/06/18 05:38:10;;;;;;;8.32;3.90;;;24.00;63.60;;;;;;5100634;28;20382;-52
2021/06/18 05:40:35;;;;;;;5.60;3.53;;;24.00;63.60;;;;;;5100425;28;20020;-51
2021/06/18 05:43:03;;;;;;;5.60;3.13;;;24.00;63.60;;;;;;5100361;28;20024;-51
2021/06/18 05:45:32;;;;;;;6.85;3.20;;;24.10;63.60;;;;;;5100337;28;20039;-52
2021/06/18 05:47:58;;;;;;;7.45;3.58;;;24.10;63.60;;;;;;5098958;28;20043;-51
2021/06/18 05:50:23;;;;;;;6.68;3.00;;;24.10;64.30;;;;;;5100159;28;20055;-50
2021/06/18 05:52:49;;;;;;;6.07;3.10;;;24.10;63.70;;;;;;5100195;28;20031;-51
2021/06/18 05:55:14;;;;;;;5.97;2.80;;;24.10;63.80;;;;;;5100026;28;20088;-52
2021/06/18 05:57:42;;;;;;;5.45;3.35;;;24.00;63.70;;;;;;5100040;28;20059;-52
2021/06/18 06:00:36;;;;;;;5.43;2.75;;;24.10;63.30;;;;;;5100820;27;20370;-52
2021/06/18 06:03:01;;;;;;;4.55;3.00;;;24.00;63.70;;;;;;5099365;28;20031;-51
2021/06/18 06:05:27;;;;;;;7.63;3.10;;;24.00;63.70;;;;;;5100391;28;20008;-51
2021/06/18 06:07:54;;;;;;;5.65;3.30;;;24.00;63.80;;;;;;5100424;28;20023;-52
2021/06/18 06:10:19;;;;;;;5.57;3.17;;;24.10;63.80;;;;;;5100461;28;20027;-52
2021/06/18 06:13:25;;;;;;;6.93;3.25;;;24.00;63.40;;;;;;5100862;27;20397;-52
2021/06/18 06:15:51;;;;;;;4.57;2.70;;;24.00;63.80;;;;;;5100542;28;20012;-52
2021/06/18 06:18:23;;;;;;;5.18;2.72;;;24.00;63.40;;;;;;5100489;27;20378;-51
2021/06/18 06:20:49;;;;;;;7.25;2.67;;;24.00;63.90;;;;;;5100657;28;20036;-53
2021/06/18 06:23:15;;;;;;;4.78;2.75;;;24.10;63.90;;;;;;5100560;28;20087;-51
2021/06/18 06:25:40;;;;;;;5.70;2.70;;;24.00;63.90;;;;;;5100613;28;20062;-52
2021/06/18 06:28:06;;;;;;;5.32;3.00;;;24.00;63.90;;;;;;5099878;28;20020;-52
2021/06/18 06:30:32;;;;;;;5.82;2.60;;;24.00;63.90;;;;;;5100426;28;20072;-52
2021/06/18 06:32:57;;;;;;;5.97;2.47;;;24.10;64.00;;;;;;5100441;28;20031;-53
2021/06/18 06:35:24;;;;;;;4.72;2.88;;;24.10;64.00;;;;;;5099109;28;20062;-52
2021/06/18 06:37:51;;;;;;;5.95;2.88;;;24.00;64.00;;;;;;5098950;28;20131;-51
2021/06/18 06:42:01;;;;;;;4.05;2.63;;;24.10;63.60;;;;;;5080463;28;20398;-51
2021/06/18 06:44:27;;;;;;;7.03;2.65;;;24.00;64.10;;;;;;5080296;28;20706;-52
2021/06/18 06:46:53;;;;;;;5.55;2.70;;;24.10;64.10;;;;;;5077433;28;20028;-51
2021/06/18 06:49:18;;;;;;;6.18;2.45;;;24.00;64.10;;;;;;5060023;28;20032;-55
2021/06/18 06:51:44;;;;;;;5.40;3.35;;;24.10;64.20;;;;;;5060048;28;20033;-53
2021/06/18 06:54:09;;;;;;;4.65;2.78;;;24.00;64.10;;;;;;5058563;28;20103;-53
2021/06/18 06:56:36;;;;;;;6.35;2.95;;;24.00;64.10;;;;;;5059843;28;20092;-57
2021/06/18 06:59:01;;;;;;;4.60;2.83;;;24.10;64.30;;;;;;5059872;28;20138;-52
2021/06/18 07:01:27;;;;;;;4.90;2.50;;;24.10;64.20;;;;;;5059771;28;20040;-52
2021/06/18 07:03:52;;;;;;;4.80;2.55;;;24.00;64.20;;;;;;5059794;28;20032;-52
2021/06/18 07:06:18;;;;;;;4.60;2.50;;;24.00;64.30;;;;;;5059626;28;20186;-52
2021/06/18 07:08:44;;;;;;;4.97;2.17;;;24.00;64.20;;;;;;5058311;28;20035;-51
2021/06/18 07:11:09;;;;;;;4.15;2.10;;;24.10;64.30;;;;;;5059460;28;20387;-51
2021/06/18 07:13:35;;;;;;;5.57;2.67;;;24.00;64.30;;;;;;5059558;28;20463;-52
2021/06/18 07:16:00;;;;;;;4.28;2.38;;;24.00;64.30;;;;;;5059488;28;20103;-51
2021/06/18 07:18:26;;;;;;;5.07;2.42;;;24.10;64.40;;;;;;5059332;28;20044;-51
2021/06/18 07:20:52;;;;;;;4.30;2.60;;;24.10;64.40;;;;;;5056352;28;20539;-51
2021/06/18 07:24:35;;;;;;;3.97;2.42;;;24.00;64.00;;;;;;5083652;27;20405;-50
2021/06/18 07:27:00;;;;;;;5.38;2.67;;;24.00;64.50;;;;;;5080252;28;20028;-52
2021/06/18 07:29:26;;;;;;;4.15;2.58;;;24.00;64.50;;;;;;5080278;28;20028;-52
2021/06/18 07:31:52;;;;;;;4.10;2.30;;;24.00;64.50;;;;;;5080193;28;20376;-51
2021/06/18 07:34:18;;;;;;;4.63;2.67;;;24.10;64.60;;;;;;5080217;28;20009;-51
2021/06/18 07:36:44;;;;;;;4.68;2.55;;;24.00;64.50;;;;;;5080063;28;20115;-55
2021/06/18 07:41:10;;;;;;;4.82;2.80;;;24.00;64.10;;;;;;5100783;27;20401;-51
2021/06/18 07:43:35;;;;;;;5.40;2.40;;;24.00;64.60;;;;;;5100659;28;20036;-51
2021/06/18 07:46:01;;;;;;;3.70;2.38;;;24.10;64.70;;;;;;5100608;28;20498;-52
2021/06/18 07:48:27;;;;;;;6.93;2.50;;;24.00;64.60;;;;;;5100513;28;20102;-52
2021/06/18 07:50:53;;;;;;;4.30;2.22;;;24.00;64.60;;;;;;5100526;28;20451;-51
2021/06/18 07:53:18;;;;;;;4.22;2.30;;;24.00;64.60;;;;;;5100420;28;20027;-52
2021/06/18 07:55:44;;;;;;;7.40;2.40;;;24.00;64.60;;;;;;5100433;28;20040;-51
2021/06/18 07:58:10;;;;;;;4.40;2.47;;;24.10;64.70;;;;;;5100258;28;20020;-51
2021/06/18 08:00:35;;;;;;;4.18;2.30;;;24.00;64.70;;;;;;5100401;28;20028;-52
2021/06/18 08:03:03;;;;;;;3.83;2.10;;;24.10;64.70;;;;;;5100315;28;20939;-52
2021/06/18 08:05:28;;;;;;;4.90;2.80;;;24.10;64.80;;;;;;5100122;28;20477;-52
2021/06/18 08:07:54;;;;;;;4.07;2.40;;;24.10;65.30;;;;;;5100109;28;20023;-53
2021/06/18 08:10:22;;;;;;;4.95;2.05;;;24.10;64.80;;;;;;5098729;28;20032;-52
2021/06/18 08:12:47;;;;;;;4.22;2.17;;;24.00;64.80;;;;;;5100036;28;20428;-51
2021/06/18 08:15:13;;;;;;;3.78;2.10;;;24.10;64.80;;;;;;5100029;28;20028;-52
2021/06/18 08:17:39;;;;;;;3.67;2.08;;;24.10;64.80;;;;;;5099881;28;20024;-51
2021/06/18 08:20:05;;;;;;;3.60;2.10;;;24.00;64.80;;;;;;5099915;28;20036;-53
2021/06/18 08:22:31;;;;;;;3.72;2.03;;;24.00;64.80;;;;;;5099803;28;20016;-52
2021/06/18 08:24:56;;;;;;;3.75;2.20;;;24.10;64.90;;;;;;5099750;28;20103;-52
2021/06/18 08:27:22;;;;;;;3.85;2.20;;;24.10;64.90;;;;;;5099753;28;20020;-52
2021/06/18 08:29:48;;;;;;;3.80;2.20;;;24.10;64.90;;;;;;5098432;28;20027;-52
2021/06/18 08:32:13;;;;;;;4.15;1.92;;;24.10;65.10;;;;;;5099723;28;20036;-51
2021/06/18 08:34:39;;;;;;;3.90;2.20;;;24.10;64.90;;;;;;5099668;28;20024;-52
2021/06/18 08:37:05;;;;;;;4.40;2.53;;;24.10;64.80;;;;;;5099408;28;20048;-50
2021/06/18 08:39:30;;;;;;;3.92;2.25;;;24.10;64.80;;;;;;5099405;28;20101;-52
2021/06/18 08:41:56;;;;;;;3.42;1.90;;;24.10;64.80;;;;;;5099480;28;20025;-51
2021/06/18 08:44:22;;;;;;;3.40;1.88;;;24.10;64.80;;;;;;5099502;28;20625;-55
2021/06/18 08:46:47;;;;;;;4.45;2.13;;;24.10;64.90;;;;;;5099403;28;20028;-52
2021/06/18 08:49:13;;;;;;;4.82;2.35;;;24.10;64.80;;;;;;5099405;28;20059;-52
2021/06/18 08:51:39;;;;;;;3.80;1.92;;;24.10;64.80;;;;;;5091014;28;20027;-52
2021/06/18 08:54:04;;;;;;;3.60;2.00;;;24.10;64.80;;;;;;5085788;28;20032;-52
2021/06/18 08:56:30;;;;;;;3.92;1.85;;;24.10;64.70;;;;;;5084537;28;20043;-52
2021/06/18 08:58:56;;;;;;;4.22;2.22;;;24.10;64.70;;;;;;5085605;28;20020;-52
2021/06/18 09:01:50;;;;;;;3.53;1.90;;;24.10;64.20;;;;;;5100800;27;20405;-52
2021/06/18 09:04:15;;;;;;;4.15;2.50;;;24.10;64.70;;;;;;5100664;28;20032;-54
2021/06/18 09:06:42;;;;;;;3.70;2.22;;;24.10;64.60;;;;;;5100469;28;20437;-52
2021/06/18 09:09:24;;;;;;;4.65;2.38;;;24.10;64.60;;;;;;5100582;28;20027;-52
2021/06/18 09:11:56;;;;;;;3.75;2.45;;;24.10;64.60;;;;;;5100449;28;20035;-51
2021/06/18 09:14:23;;;;;;;3.58;2.08;;;24.10;64.60;;;;;;5100490;28;20058;-52
2021/06/18 09:17:12;;;;;;;3.92;2.10;;;24.20;64.60;;;;;;5100298;28;20055;-51
2021/06/18 09:19:52;;;;;;;4.53;1.80;;;24.10;64.60;;;;;;5100310;28;20490;-52
2021/06/18 09:22:24;;;;;;;3.45;1.85;;;24.10;64.60;;;;;;5100380;28;20019;-57
2021/06/18 09:24:59;;;;;;;3.70;1.83;;;24.10;64.60;;;;;;5100470;28;20409;-52
2021/06/18 09:27:34;;;;;;;3.45;1.92;;;24.10;64.60;;;;;;5100181;28;20020;-52
2021/06/18 09:30:39;;;;;;;4.05;2.38;;;24.20;64.70;;;;;;5099978;28;20530;-52
2021/06/18 09:33:09;;;;;;;4.25;2.45;;;24.10;64.60;;;;;;5059757;28;20078;-55
2021/06/18 09:35:35;;;;;;;4.07;2.45;;;24.10;64.70;;;;;;5076734;28;20040;-52
2021/06/18 09:38:03;;;;;;;4.45;2.17;;;24.10;64.80;;;;;;5088071;28;20028;-51
2021/06/18 09:41:35;;;;;;;3.58;2.10;;;24.20;64.50;;;;;;5100811;27;20401;-51
2021/06/18 09:44:02;;;;;;;3.80;2.20;;;24.10;64.90;;;;;;5100598;28;20012;-52
2021/06/18 09:46:44;;;;;;;3.42;2.08;;;24.20;65.00;;;;;;5100582;28;20028;-53
2021/06/18 09:49:35;;;;;;;3.45;1.90;;;24.10;65.00;;;;;;5080161;28;20104;-52
2021/06/18 09:52:02;;;;;;;4.30;2.03;;;24.20;65.10;;;;;;5080148;28;20031;-52
2021/06/18 09:54:32;;;;;;;3.88;2.20;;;24.10;65.00;;;;;;5080115;28;20031;-55
2021/06/18 09:57:05;;;;;;;3.95;2.10;;;24.20;65.10;;;;;;5073488;28;20021;-54
2021/06/18 09:59:31;;;;;;;3.63;2.10;;;24.20;65.20;;;;;;5064961;28;20072;-52
2021/06/18 10:02:04;;;;;;;5.00;2.55;;;24.20;64.80;;;;;;5066543;28;20395;-54
2021/06/18 10:04:35;;;;;;;4.00;2.15;;;24.20;65.30;;;;;;5059924;28;20032;-51
2021/06/18 10:07:00;;;;;;;4.20;2.30;;;24.20;65.30;;;;;;5051667;28;20553;-52
2021/06/18 10:09:26;;;;;;;3.88;2.10;;;24.20;65.40;;;;;;5049688;28;20032;-51
2021/06/18 10:11:53;;;;;;;4.03;2.30;;;24.20;65.40;;;;;;5040532;28;20016;-51
2021/06/18 10:14:18;;;;;;;3.80;2.10;;;24.20;65.40;;;;;;5040905;28;20071;-52
2021/06/18 10:16:44;;;;;;;4.07;2.10;;;24.20;65.50;;;;;;5049413;28;20052;-53
2021/06/18 10:19:10;;;;;;;3.67;2.25;;;24.20;65.50;;;;;;5043414;28;20028;-53
2021/06/18 10:21:59;;;;;;;4.60;2.63;;;24.20;65.60;;;;;;5049193;28;20041;-60
2021/06/18 10:24:26;;;;;;;4.70;2.63;;;24.20;65.40;;;;;;5049393;28;20028;-60
2021/06/18 10:26:52;;;;;;;3.92;2.20;;;24.20;65.30;;;;;;5051052;28;20029;-51
2021/06/18 10:29:37;;;;;;;5.15;2.72;;;24.20;65.30;;;;;;5051932;28;20031;-60
2021/06/18 10:32:27;;;;;;;4.57;2.53;;;24.30;65.40;;;;;;5056452;28;20029;-60
2021/06/18 10:34:57;;;;;;;4.47;2.20;;;24.20;65.40;;;;;;5056061;28;20029;-58
2021/06/18 10:37:24;;;;;;;4.43;2.33;;;24.30;65.50;;;;;;5056694;28;20029;-53
2021/06/18 10:39:53;;;;;;;4.18;2.53;;;24.30;65.60;;;;;;5053471;28;20025;-60
2021/06/18 10:42:19;;;;;;;3.88;2.67;;;24.30;65.60;;;;;;5064189;28;20028;-59
2021/06/18 10:44:47;;;;;;;4.85;2.50;;;24.30;65.60;;;;;;5052294;28;20033;-59
2021/06/18 10:47:22;;;;;;;4.05;2.17;;;24.30;65.60;;;;;;5053154;28;20036;-57
2021/06/18 10:49:47;;;;;;;3.95;2.50;;;24.30;65.70;;;;;;5055604;28;20049;-59
2021/06/18 10:52:18;;;;;;;3.85;2.35;;;24.30;66.20;;;;;;5057071;28;20069;-60
2021/06/18 10:54:50;;;;;;;4.68;2.30;;;24.30;65.70;;;;;;5049660;28;20336;-55
2021/06/18 10:57:19;;;;;;;4.38;2.78;;;24.30;65.70;;;;;;5059463;28;20090;-53
2021/06/18 11:00:18;;;;;;;5.07;2.60;;;24.30;65.30;;;;;;5103526;27;20414;-60
2021/06/18 11:02:44;;;;;;;3.45;2.00;;;24.30;65.80;;;;;;5096849;28;20025;-60
2021/06/18 11:05:15;;;;;;;3.60;2.20;;;24.30;66.30;;;;;;5091517;28;20039;-60
2021/06/18 11:07:41;;;;;;;3.78;2.10;;;24.30;65.80;;;;;;5100040;28;20023;-54
2021/06/18 11:10:33;;;;;;;4.18;2.83;;;24.30;65.80;;;;;;5088921;28;20030;-59
2021/06/18 11:13:00;;;;;;;3.95;2.60;;;24.30;65.80;;;;;;5097133;28;20085;-59
2021/06/18 11:15:46;;;;;;;4.03;2.45;;;24.30;65.80;;;;;;5097926;28;20360;-59
2021/06/18 11:18:17;;;;;;;3.80;2.50;;;24.30;65.90;;;;;;5100021;28;20042;-54
2021/06/18 11:20:43;;;;;;;4.07;2.55;;;24.30;65.90;;;;;;5096623;28;20024;-59
2021/06/18 11:23:13;;;;;;;3.78;2.40;;;24.30;65.90;;;;;;5093091;28;20008;-59
2021/06/18 11:25:42;;;;;;;3.60;2.25;;;24.30;65.90;;;;;;5093356;28;20100;-55
2021/06/18 11:28:20;;;;;;;3.72;2.47;;;24.30;66.00;;;;;;5095807;28;20035;-51
2021/06/18 11:30:58;;;;;;;3.80;2.33;;;24.30;66.00;;;;;;5089682;28;20552;-53
2021/06/18 11:33:36;;;;;;;3.90;2.30;;;24.40;66.10;;;;;;5088477;28;20017;-51
2021/06/18 11:36:08;;;;;;;3.97;2.35;;;24.40;66.10;;;;;;5087922;28;20099;-53
2021/06/18 11:38:34;;;;;;;3.78;2.40;;;24.30;66.00;;;;;;5087733;28;20103;-51
2021/06/18 11:41:01;;;;;;;3.38;2.08;;;24.40;66.10;;;;;;5089253;28;20032;-58
2021/06/18 11:43:28;;;;;;;3.58;2.28;;;24.40;66.10;;;;;;5087544;28;20020;-51
2021/06/18 11:45:54;;;;;;;3.80;2.33;;;24.40;66.20;;;;;;5087629;28;20185;-51
2021/06/18 11:48:19;;;;;;;3.90;2.40;;;24.40;66.20;;;;;;5086054;28;20095;-61
2021/06/18 11:50:46;;;;;;;4.65;2.75;;;24.40;66.20;;;;;;5096407;28;20028;-62
2021/06/18 11:53:16;;;;;;;4.10;2.55;;;24.40;66.30;;;;;;5108434;28;20378;-61
2021/06/18 11:55:42;;;;;;;5.97;2.67;;;24.40;66.50;;;;;;5108838;28;20023;-62
2021/06/18 11:58:07;;;;;;;7.10;2.80;;;24.40;66.50;;;;;;5108526;28;20036;-61
2021/06/18 12:00:34;;;;;;;7.10;2.78;;;24.40;66.50;;;;;;5108847;28;20888;-61
2021/06/18 12:03:00;;;;;;;6.93;3.25;;;24.50;66.80;;;;;;5100375;28;20028;-51
2021/06/18 12:05:30;;;;;;;4.47;2.60;;;24.40;66.90;;;;;;5087186;28;20103;-63
2021/06/18 12:07:56;;;;;;;7.82;2.70;;;24.50;67.10;;;;;;5093228;28;20036;-63
2021/06/18 12:10:33;;;;;;;4.68;2.72;;;24.50;67.20;;;;;;5082146;28;20031;-58
2021/06/18 12:13:00;;;;;;;7.68;2.80;;;24.50;67.40;;;;;;5072973;28;20525;-52
2021/06/18 12:15:30;;;;;;;15.18;9.40;;;24.50;67.60;;;;;;5074328;28;20032;-57
2021/06/18 12:17:58;;;;;;;1183.70;390.67;;;24.50;67.70;;;;;;5073154;28;20016;-51
2021/06/18 12:20:35;;;;;;;579.95;205.80;;;24.50;68.80;;;;;;5075757;28;20016;-51
2021/06/18 12:23:02;;;;;;;465.88;164.50;;;24.50;68.90;;;;;;5077977;28;20028;-54
2021/06/18 12:25:27;;;;;;;469.35;179.57;;;24.50;69.60;;;;;;5075977;28;20016;-61
2021/06/18 12:27:55;;;;;;;415.17;212.25;;;24.50;70.20;;;;;;5073872;28;20035;-61
2021/06/18 12:30:21;;;;;;;691.35;425.88;;;24.50;71.20;;;;;;5074742;28;20036;-56
2021/06/18 12:32:47;;;;;;;1378.03;832.70;;;24.60;72.40;;;;;;5057879;28;20438;-60
2021/06/18 12:35:16;;;;;;;1538.72;911.63;;;24.60;72.80;;;;;;5073735;28;20025;-59
2021/06/18 12:37:47;;;;;;;883.05;687.80;;;24.60;73.10;;;;;;5073971;28;20033;-61
2021/06/18 12:40:20;;;;;;;681.88;547.80;;;24.60;73.20;;;;;;5073466;28;20028;-61
2021/06/18 12:42:50;;;;;;;583.17;449.48;;;24.60;72.80;;;;;;5073507;28;20482;-62
2021/06/18 12:45:20;;;;;;;501.25;378.35;;;24.70;73.30;;;;;;5078021;28;20816;-61
2021/06/18 12:47:48;;;;;;;458.48;329.58;;;24.70;72.10;;;;;;5075021;28;20024;-54
2021/06/18 12:50:33;;;;;;;428.98;299.85;;;24.70;71.80;;;;;;5076760;28;20476;-62
2021/06/18 12:53:06;;;;;;;399.98;277.58;;;24.80;71.70;;;;;;5067447;28;20111;-61
2021/06/18 12:55:37;;;;;;;400.85;282.80;;;24.70;71.30;;;;;;5035879;27;20384;-52
2021/06/18 12:58:09;;;;;;;393.38;269.02;;;24.70;71.10;;;;;;5044581;28;20056;-59
2021/06/18 13:00:42;;;;;;;380.95;265.92;;;24.70;70.90;;;;;;5046830;28;20087;-56
2021/06/18 13:03:09;;;;;;;369.38;256.13;;;24.70;70.60;;;;;;5050923;28;20040;-63
2021/06/18 13:05:35;;;;;;;365.15;252.95;;;24.70;70.60;;;;;;5048614;28;20016;-61
2021/06/18 13:08:06;;;;;;;346.88;240.00;;;24.70;70.40;;;;;;5046914;28;20808;-52
2021/06/18 13:10:38;;;;;;;335.98;228.55;;;24.70;70.40;;;;;;5046474;28;20041;-63
2021/06/18 13:13:04;;;;;;;333.00;226.85;;;24.70;70.40;;;;;;5050666;28;20047;-59
2021/06/18 13:15:31;;;;;;;300.70;203.98;;;24.70;70.30;;;;;;5046734;28;20476;-62
2021/06/18 13:17:58;;;;;;;298.60;207.00;;;24.70;70.10;;;;;;5033278;28;20039;-64
2021/06/18 13:20:35;;;;;;;277.52;195.63;;;24.70;70.10;;;;;;5063477;28;20028;-54
2021/06/18 13:23:01;;;;;;;274.80;185.35;;;24.70;70.10;;;;;;5050092;28;20483;-51
2021/06/18 13:25:32;;;;;;;264.65;181.02;;;24.70;69.90;;;;;;5051242;28;20575;-51
2021/06/18 13:28:04;;;;;;;247.70;172.10;;;24.70;70.00;;;;;;5054595;28;20404;-54
2021/06/18 13:30:31;;;;;;;245.75;166.32;;;24.70;69.90;;;;;;5046983;28;20032;-55
2021/06/18 13:32:59;;;;;;;238.55;159.95;;;24.70;69.80;;;;;;5056745;28;20043;-51
2021/06/18 13:35:29;;;;;;;229.15;151.88;;;24.70;69.70;;;;;;5051098;28;20057;-52
2021/06/18 13:38:03;;;;;;;219.48;151.05;;;24.70;69.60;;;;;;5049396;28;20037;-53
2021/06/18 13:40:38;;;;;;;210.93;144.93;;;24.70;69.50;;;;;;5064333;28;20028;-59
2021/06/18 13:43:05;;;;;;;207.57;141.10;;;24.70;69.40;;;;;;5053680;28;20040;-57
2021/06/18 13:45:31;;;;;;;203.13;137.30;;;24.70;69.20;;;;;;5061394;28;20032;-54
2021/06/18 13:48:00;;;;;;;198.13;132.85;;;24.70;69.10;;;;;;5065524;28;20154;-62
2021/06/18 13:50:27;;;;;;;192.90;126.07;;;24.70;69.10;;;;;;5070252;28;20111;-54
2021/06/18 13:52:53;;;;;;;185.68;125.50;;;24.70;68.90;;;;;;5072557;28;20024;-53
2021/06/18 13:55:19;;;;;;;177.63;122.25;;;24.70;69.20;;;;;;5072753;28;20035;-60
2021/06/18 13:57:45;;;;;;;172.48;117.35;;;24.70;69.50;;;;;;5072272;28;20023;-52
2021/06/18 14:00:13;;;;;;;181.43;115.65;;;24.70;69.50;;;;;;5072629;28;20046;-54
2021/06/18 14:02:39;;;;;;;197.18;116.20;;;24.70;70.60;;;;;;5066307;28;20378;-51
2021/06/18 14:05:05;;;;;;;155.48;105.03;;;24.80;71.50;;;;;;5067781;28;20017;-54
2021/06/18 14:07:31;;;;;;;174.70;109.03;;;24.70;71.80;;;;;;5064935;28;20034;-51
2021/06/18 14:09:57;;;;;;;181.75;109.63;;;24.80;72.10;;;;;;5063808;28;20115;-52
2021/06/18 14:12:23;;;;;;;154.25;100.95;;;24.80;71.90;;;;;;5066776;28;20079;-52
2021/06/18 14:14:54;;;;;;;149.73;99.60;;;24.80;71.50;;;;;;5058968;28;20025;-52
2021/06/18 14:17:20;;;;;;;143.52;95.72;;;24.80;70.90;;;;;;5062995;28;20039;-53
2021/06/18 14:19:47;;;;;;;134.23;94.30;;;24.80;71.20;;;;;;5067025;28;20398;-52
2021/06/18 14:22:14;;;;;;;141.35;93.57;;;24.70;71.10;;;;;;5062022;28;20036;-52
2021/06/18 14:24:42;;;;;;;135.35;91.80;;;24.80;71.00;;;;;;5054607;28;20027;-53
2021/06/18 14:27:08;;;;;;;132.05;90.43;;;24.80;71.00;;;;;;5056926;28;20025;-52
2021/06/18 14:29:34;;;;;;;171.10;88.38;;;24.80;71.10;;;;;;5052559;28;20021;-51
2021/06/18 14:32:05;;;;;;;135.40;85.03;;;24.80;71.60;;;;;;5052778;28;20033;-51
2021/06/18 14:34:32;;;;;;;116.90;77.85;;;24.80;71.70;;;;;;5060888;28;20621;-51
2021/06/18 14:36:59;;;;;;;128.07;85.45;;;24.80;71.90;;;;;;5054068;28;20076;-52
2021/06/18 14:39:24;;;;;;;126.57;82.40;;;24.80;72.90;;;;;;5068127;28;20036;-51
2021/06/18 14:41:50;;;;;;;112.15;79.45;;;24.80;73.40;;;;;;5058244;28;20028;-58
2021/06/18 14:44:16;;;;;;;116.45;76.82;;;24.80;73.30;;;;;;5062195;28;20020;-54
2021/06/18 14:46:41;;;;;;;116.93;79.55;;;24.80;73.60;;;;;;5056493;28;20047;-53
2021/06/18 14:49:07;;;;;;;110.20;72.72;;;24.80;73.60;;;;;;5057880;28;20032;-54
2021/06/18 14:51:35;;;;;;;113.63;75.25;;;24.80;73.60;;;;;;5057391;28;20016;-52
2021/06/18 14:54:05;;;;;;;102.28;70.82;;;24.80;74.70;;;;;;5059293;28;20095;-59
2021/06/18 14:56:32;;;;;;;97.85;67.10;;;24.80;74.70;;;;;;5061622;28;20134;-59
2021/06/18 14:58:57;;;;;;;96.40;63.30;;;24.80;74.00;;;;;;5062620;28;20052;-56
2021/06/18 15:01:23;;;;;;;97.57;63.08;;;24.80;73.70;;;;;;5060466;28;20028;-61
2021/06/18 15:03:49;;;;;;;91.93;62.08;;;24.80;73.30;;;;;;5061885;28;20039;-52
2021/06/18 15:06:15;;;;;;;90.88;61.97;;;24.80;73.10;;;;;;5057759;28;20114;-60
2021/06/18 15:08:41;;;;;;;87.20;59.83;;;24.90;73.10;;;;;;5061577;28;20644;-59
2021/06/18 15:11:06;;;;;;;83.18;57.28;;;24.80;72.90;;;;;;5058594;28;20036;-52
2021/06/18 15:13:32;;;;;;;84.32;59.20;;;24.90;72.90;;;;;;5062078;28;20021;-55
2021/06/18 15:15:58;;;;;;;82.30;55.33;;;24.90;72.80;;;;;;5061152;28;20455;-52
2021/06/18 15:18:24;;;;;;;81.53;57.65;;;24.90;72.30;;;;;;5061167;28;20067;-52
2021/06/18 15:20:50;;;;;;;78.78;53.97;;;24.90;72.10;;;;;;5053717;28;20013;-58
2021/06/18 15:23:16;;;;;;;69.95;53.13;;;24.90;72.20;;;;;;5043874;28;20537;-61
2021/06/18 15:25:42;;;;;;;72.53;52.03;;;24.90;72.00;;;;;;5060299;28;20028;-60
2021/06/18 15:28:08;;;;;;;75.75;51.33;;;24.80;71.60;;;;;;5064193;28;20020;-61
2021/06/18 15:30:34;;;;;;;77.30;52.28;;;24.80;71.30;;;;;;5064281;28;20753;-62
2021/06/18 15:33:01;;;;;;;70.85;47.97;;;24.80;71.20;;;;;;5064427;28;20086;-53
2021/06/18 15:35:27;;;;;;;75.78;48.17;;;24.80;71.10;;;;;;5063655;28;20033;-61
2021/06/18 15:37:53;;;;;;;60.63;45.08;;;24.80;70.90;;;;;;5063907;28;20495;-51
2021/06/18 15:40:19;;;;;;;69.55;48.45;;;24.80;70.70;;;;;;5064298;28;20075;-51
2021/06/18 15:42:45;;;;;;;70.88;46.53;;;24.80;70.70;;;;;;5064281;28;20123;-52
2021/06/18 15:45:12;;;;;;;62.78;42.53;;;24.80;70.60;;;;;;5064787;28;20037;-52
2021/06/18 15:47:38;;;;;;;67.15;44.75;;;24.80;70.70;;;;;;5067353;28;20020;-53
2021/06/18 15:50:05;;;;;;;63.95;43.60;;;24.80;70.60;;;;;;5067357;28;20483;-60
2021/06/18 15:52:31;;;;;;;61.92;40.92;;;24.80;70.40;;;;;;5067907;28;20036;-57